sensor_id;sensor_type;location;lat;lon;timestamp;P1;durP1;ratioP1;P2;durP2;ratioP2
2940;SDS011;1480;51.456;6.670;2023-06-10T00:00:41;4.33;;;3.23;;
2940;SDS011;1480;51.456;6.670;2023-06-10T00:03:07;6.60;;;2.63;;
2940;SDS011;1480;51.456;6.670;2023-06-10T00:05:34;3.97;;;3.20;;
2940;SDS011;1480;51.456;6.670;2023-06-10T00:08:04;4.40;;;3.20;;
2940;SDS011;1480;51.456;6.670;2023-06-10T00:10:34;3.17;;;2.87;;
2940;SDS011;1480;51.456;6.670;2023-06-10T00:13:01;3.23;;;2.40;;
2940;SDS011;1480;51.456;6.670;2023-06-10T00:15:28;4.23;;;3.23;;
2940;SDS011;1480;51.456;6.670;2023-06-10T00:17:55;3.40;;;2.70;;
2940;SDS011;1480;51.456;6.670;2023-06-10T00:20:22;4.33;;;3.43;;
2940;SDS011;1480;51.456;6.670;2023-06-10T00:22:50;4.43;;;2.70;;
2940;SDS011;1480;51.456;6.670;2023-06-10T00:25:17;4.77;;;3.73;;
2940;SDS011;1480;51.456;6.670;2023-06-10T00:27:45;2.87;;;2.57;;
2940;SDS011;1480;51.456;6.670;2023-06-10T00:30:12;4.90;;;2.93;;
2940;SDS011;1480;51.456;6.670;2023-06-10T00:32:39;3.63;;;3.23;;
2940;SDS011;1480;51.456;6.670;2023-06-10T00:35:06;3.97;;;2.73;;
2940;SDS011;1480;51.456;6.670;2023-06-10T00:37:33;5.20;;;2.80;;
2940;SDS011;1480;51.456;6.670;2023-06-10T00:40:01;3.30;;;2.93;;
2940;SDS011;1480;51.456;6.670;2023-06-10T00:42:28;5.80;;;2.77;;
2940;SDS011;1480;51.456;6.670;2023-06-10T00:44:56;4.40;;;3.50;;
2940;SDS011;1480;51.456;6.670;2023-06-10T00:47:23;3.10;;;2.43;;
2940;SDS011;1480;51.456;6.670;2023-06-10T00:49:49;3.60;;;2.40;;
2940;SDS011;1480;51.456;6.670;2023-06-10T00:52:17;4.60;;;3.67;;
2940;SDS011;1480;51.456;6.670;2023-06-10T00:54:44;3.40;;;2.83;;
2940;SDS011;1480;51.456;6.670;2023-06-10T00:57:11;3.73;;;3.03;;
2940;SDS011;1480;51.456;6.670;2023-06-10T00:59:39;3.63;;;3.13;;
2940;SDS011;1480;51.456;6.670;2023-06-10T01:02:07;5.83;;;3.00;;
2940;SDS011;1480;51.456;6.670;2023-06-10T01:04:34;4.80;;;3.63;;
2940;SDS011;1480;51.456;6.670;2023-06-10T01:07:04;5.57;;;3.03;;
2940;SDS011;1480;51.456;6.670;2023-06-10T01:09:37;4.50;;;2.83;;
2940;SDS011;1480;51.456;6.670;2023-06-10T01:12:09;5.10;;;3.40;;
2940;SDS011;1480;51.456;6.670;2023-06-10T01:14:38;4.10;;;3.00;;
2940;SDS011;1480;51.456;6.670;2023-06-10T01:17:11;4.30;;;3.43;;
2940;SDS011;1480;51.456;6.670;2023-06-10T01:19:41;9.93;;;3.63;;
2940;SDS011;1480;51.456;6.670;2023-06-10T01:22:10;4.13;;;3.40;;
2940;SDS011;1480;51.456;6.670;2023-06-10T01:24:41;3.93;;;3.10;;
2940;SDS011;1480;51.456;6.670;2023-06-10T01:27:10;3.93;;;3.50;;
2940;SDS011;1480;51.456;6.670;2023-06-10T01:29:41;3.63;;;2.80;;
2940;SDS011;1480;51.456;6.670;2023-06-10T01:32:14;4.50;;;3.00;;
2940;SDS011;1480;51.456;6.670;2023-06-10T01:34:43;4.20;;;2.93;;
2940;SDS011;1480;51.456;6.670;2023-06-10T01:37:13;3.63;;;3.10;;
2940;SDS011;1480;51.456;6.670;2023-06-10T01:39:40;4.60;;;3.20;;
2940;SDS011;1480;51.456;6.670;2023-06-10T01:42:08;5.03;;;2.43;;
2940;SDS011;1480;51.456;6.670;2023-06-10T01:44:36;5.90;;;3.00;;
2940;SDS011;1480;51.456;6.670;2023-06-10T01:47:07;4.00;;;2.90;;
2940;SDS011;1480;51.456;6.670;2023-06-10T01:49:33;3.80;;;2.60;;
2940;SDS011;1480;51.456;6.670;2023-06-10T01:52:00;4.67;;;3.53;;
2940;SDS011;1480;51.456;6.670;2023-06-10T01:54:28;4.80;;;3.00;;
2940;SDS011;1480;51.456;6.670;2023-06-10T01:56:55;5.10;;;3.57;;
2940;SDS011;1480;51.456;6.670;2023-06-10T01:59:21;4.80;;;3.50;;
2940;SDS011;1480;51.456;6.670;2023-06-10T02:01:48;5.40;;;4.27;;
2940;SDS011;1480;51.456;6.670;2023-06-10T02:04:15;4.00;;;3.33;;
2940;SDS011;1480;51.456;6.670;2023-06-10T02:06:41;3.23;;;2.73;;
2940;SDS011;1480;51.456;6.670;2023-06-10T02:09:08;4.77;;;2.80;;
2940;SDS011;1480;51.456;6.670;2023-06-10T02:11:36;7.63;;;3.23;;
2940;SDS011;1480;51.456;6.670;2023-06-10T02:14:03;5.60;;;3.73;;
2940;SDS011;1480;51.456;6.670;2023-06-10T02:16:30;5.57;;;3.30;;
2940;SDS011;1480;51.456;6.670;2023-06-10T02:18:56;4.60;;;3.50;;
2940;SDS011;1480;51.456;6.670;2023-06-10T02:21:23;5.40;;;3.13;;
2940;SDS011;1480;51.456;6.670;2023-06-10T02:23:50;4.70;;;3.57;;
2940;SDS011;1480;51.456;6.670;2023-06-10T02:26:17;5.20;;;4.00;;
2940;SDS011;1480;51.456;6.670;2023-06-10T02:28:46;4.77;;;3.10;;
2940;SDS011;1480;51.456;6.670;2023-06-10T02:31:13;5.50;;;3.57;;
2940;SDS011;1480;51.456;6.670;2023-06-10T02:33:43;5.00;;;3.60;;
2940;SDS011;1480;51.456;6.670;2023-06-10T02:36:10;5.57;;;4.30;;
2940;SDS011;1480;51.456;6.670;2023-06-10T02:38:38;5.17;;;3.50;;
2940;SDS011;1480;51.456;6.670;2023-06-10T02:41:05;11.17;;;3.20;;
2940;SDS011;1480;51.456;6.670;2023-06-10T02:43:32;6.43;;;3.80;;
2940;SDS011;1480;51.456;6.670;2023-06-10T02:46:00;4.43;;;3.47;;
2940;SDS011;1480;51.456;6.670;2023-06-10T02:48:27;6.17;;;4.43;;
2940;SDS011;1480;51.456;6.670;2023-06-10T02:50:55;6.60;;;4.50;;
2940;SDS011;1480;51.456;6.670;2023-06-10T02:53:29;7.90;;;4.53;;
2940;SDS011;1480;51.456;6.670;2023-06-10T02:56:02;5.50;;;3.57;;
2940;SDS011;1480;51.456;6.670;2023-06-10T02:58:29;4.60;;;3.63;;
2940;SDS011;1480;51.456;6.670;2023-06-10T03:00:57;4.87;;;4.20;;
2940;SDS011;1480;51.456;6.670;2023-06-10T03:03:27;4.77;;;4.10;;
2940;SDS011;1480;51.456;6.670;2023-06-10T03:06:02;5.83;;;3.93;;
2940;SDS011;1480;51.456;6.670;2023-06-10T03:08:30;7.37;;;4.07;;
2940;SDS011;1480;51.456;6.670;2023-06-10T03:10:59;8.30;;;4.07;;
2940;SDS011;1480;51.456;6.670;2023-06-10T03:13:26;6.40;;;4.07;;
2940;SDS011;1480;51.456;6.670;2023-06-10T03:15:53;6.77;;;5.30;;
2940;SDS011;1480;51.456;6.670;2023-06-10T03:18:25;5.23;;;4.27;;
2940;SDS011;1480;51.456;6.670;2023-06-10T03:20:54;5.40;;;4.37;;
2940;SDS011;1480;51.456;6.670;2023-06-10T03:23:22;5.53;;;3.97;;
2940;SDS011;1480;51.456;6.670;2023-06-10T03:25:50;6.70;;;4.00;;
2940;SDS011;1480;51.456;6.670;2023-06-10T03:28:18;5.03;;;4.00;;
2940;SDS011;1480;51.456;6.670;2023-06-10T03:30:45;4.17;;;3.60;;
2940;SDS011;1480;51.456;6.670;2023-06-10T03:33:12;5.80;;;4.30;;
2940;SDS011;1480;51.456;6.670;2023-06-10T03:35:40;7.70;;;5.20;;
2940;SDS011;1480;51.456;6.670;2023-06-10T03:38:08;5.47;;;4.10;;
2940;SDS011;1480;51.456;6.670;2023-06-10T03:40:36;6.87;;;4.80;;
2940;SDS011;1480;51.456;6.670;2023-06-10T03:43:04;6.00;;;4.97;;
2940;SDS011;1480;51.456;6.670;2023-06-10T03:45:31;6.23;;;4.50;;
2940;SDS011;1480;51.456;6.670;2023-06-10T03:47:58;5.60;;;4.00;;
2940;SDS011;1480;51.456;6.670;2023-06-10T03:50:31;9.87;;;4.60;;
2940;SDS011;1480;51.456;6.670;2023-06-10T03:52:58;6.60;;;5.20;;
2940;SDS011;1480;51.456;6.670;2023-06-10T03:55:27;5.30;;;3.93;;
2940;SDS011;1480;51.456;6.670;2023-06-10T03:57:55;6.63;;;4.77;;
2940;SDS011;1480;51.456;6.670;2023-06-10T04:00:23;4.47;;;4.07;;
2940;SDS011;1480;51.456;6.670;2023-06-10T04:02:50;4.10;;;3.70;;
2940;SDS011;1480;51.456;6.670;2023-06-10T04:05:31;5.30;;;4.40;;
2940;SDS011;1480;51.456;6.670;2023-06-10T04:07:58;5.23;;;4.10;;
2940;SDS011;1480;51.456;6.670;2023-06-10T04:10:28;7.43;;;6.73;;
2940;SDS011;1480;51.456;6.670;2023-06-10T04:12:54;4.90;;;4.27;;
2940;SDS011;1480;51.456;6.670;2023-06-10T04:15:24;4.13;;;3.40;;
2940;SDS011;1480;51.456;6.670;2023-06-10T04:17:51;7.73;;;4.50;;
2940;SDS011;1480;51.456;6.670;2023-06-10T04:20:20;4.13;;;3.33;;
2940;SDS011;1480;51.456;6.670;2023-06-10T04:22:48;5.87;;;4.53;;
2940;SDS011;1480;51.456;6.670;2023-06-10T04:25:15;6.90;;;4.27;;
2940;SDS011;1480;51.456;6.670;2023-06-10T04:27:44;6.30;;;4.77;;
2940;SDS011;1480;51.456;6.670;2023-06-10T04:30:11;5.53;;;3.97;;
2940;SDS011;1480;51.456;6.670;2023-06-10T04:32:39;4.47;;;4.00;;
2940;SDS011;1480;51.456;6.670;2023-06-10T04:35:12;4.30;;;3.30;;
2940;SDS011;1480;51.456;6.670;2023-06-10T04:37:39;5.13;;;4.63;;
2940;SDS011;1480;51.456;6.670;2023-06-10T04:40:06;4.50;;;3.07;;
2940;SDS011;1480;51.456;6.670;2023-06-10T04:42:34;4.20;;;3.77;;
2940;SDS011;1480;51.456;6.670;2023-06-10T04:45:03;6.07;;;4.13;;
2940;SDS011;1480;51.456;6.670;2023-06-10T04:47:30;5.13;;;3.77;;
2940;SDS011;1480;51.456;6.670;2023-06-10T04:49:58;5.03;;;3.70;;
2940;SDS011;1480;51.456;6.670;2023-06-10T04:52:25;5.60;;;4.60;;
2940;SDS011;1480;51.456;6.670;2023-06-10T04:54:52;5.37;;;3.77;;
2940;SDS011;1480;51.456;6.670;2023-06-10T04:57:18;7.70;;;4.20;;
2940;SDS011;1480;51.456;6.670;2023-06-10T04:59:45;5.50;;;4.30;;
2940;SDS011;1480;51.456;6.670;2023-06-10T05:02:13;4.63;;;4.00;;
2940;SDS011;1480;51.456;6.670;2023-06-10T05:04:40;5.00;;;3.40;;
2940;SDS011;1480;51.456;6.670;2023-06-10T05:07:06;4.93;;;3.50;;
2940;SDS011;1480;51.456;6.670;2023-06-10T05:09:33;6.20;;;3.93;;
2940;SDS011;1480;51.456;6.670;2023-06-10T05:12:00;5.60;;;2.90;;
2940;SDS011;1480;51.456;6.670;2023-06-10T05:14:27;4.23;;;3.83;;
2940;SDS011;1480;51.456;6.670;2023-06-10T05:16:54;6.17;;;4.87;;
2940;SDS011;1480;51.456;6.670;2023-06-10T05:19:22;5.77;;;4.17;;
2940;SDS011;1480;51.456;6.670;2023-06-10T05:21:48;4.37;;;3.17;;
2940;SDS011;1480;51.456;6.670;2023-06-10T05:24:15;3.80;;;3.10;;
2940;SDS011;1480;51.456;6.670;2023-06-10T05:26:42;5.00;;;3.27;;
2940;SDS011;1480;51.456;6.670;2023-06-10T05:29:08;4.33;;;3.57;;
2940;SDS011;1480;51.456;6.670;2023-06-10T05:31:35;5.67;;;3.93;;
2940;SDS011;1480;51.456;6.670;2023-06-10T05:34:02;4.70;;;3.13;;
2940;SDS011;1480;51.456;6.670;2023-06-10T05:36:30;5.90;;;4.20;;
2940;SDS011;1480;51.456;6.670;2023-06-10T05:38:57;4.40;;;3.43;;
2940;SDS011;1480;51.456;6.670;2023-06-10T05:41:24;4.53;;;2.63;;
2940;SDS011;1480;51.456;6.670;2023-06-10T05:43:50;4.60;;;3.23;;
2940;SDS011;1480;51.456;6.670;2023-06-10T05:46:17;4.20;;;3.07;;
2940;SDS011;1480;51.456;6.670;2023-06-10T05:48:44;3.60;;;2.80;;
2940;SDS011;1480;51.456;6.670;2023-06-10T05:51:10;4.80;;;3.17;;
2940;SDS011;1480;51.456;6.670;2023-06-10T05:53:38;4.33;;;2.93;;
2940;SDS011;1480;51.456;6.670;2023-06-10T05:56:05;3.63;;;2.80;;
2940;SDS011;1480;51.456;6.670;2023-06-10T05:58:32;6.30;;;3.87;;
2940;SDS011;1480;51.456;6.670;2023-06-10T06:00:59;4.00;;;3.40;;
2940;SDS011;1480;51.456;6.670;2023-06-10T06:03:26;3.97;;;3.00;;
2940;SDS011;1480;51.456;6.670;2023-06-10T06:05:53;16.63;;;4.30;;
2940;SDS011;1480;51.456;6.670;2023-06-10T06:08:20;3.80;;;3.10;;
2940;SDS011;1480;51.456;6.670;2023-06-10T06:10:48;4.13;;;2.53;;
2940;SDS011;1480;51.456;6.670;2023-06-10T06:13:16;3.60;;;2.93;;
2940;SDS011;1480;51.456;6.670;2023-06-10T06:15:42;4.50;;;2.50;;
2940;SDS011;1480;51.456;6.670;2023-06-10T06:18:09;4.50;;;2.73;;
2940;SDS011;1480;51.456;6.670;2023-06-10T06:20:36;5.03;;;3.27;;
2940;SDS011;1480;51.456;6.670;2023-06-10T06:23:02;4.03;;;3.00;;
2940;SDS011;1480;51.456;6.670;2023-06-10T06:25:29;4.27;;;2.90;;
2940;SDS011;1480;51.456;6.670;2023-06-10T06:27:57;4.07;;;2.63;;
2940;SDS011;1480;51.456;6.670;2023-06-10T06:30:24;6.00;;;2.40;;
2940;SDS011;1480;51.456;6.670;2023-06-10T06:32:52;10.70;;;2.90;;
2940;SDS011;1480;51.456;6.670;2023-06-10T06:35:19;3.57;;;2.40;;
2940;SDS011;1480;51.456;6.670;2023-06-10T06:37:45;4.93;;;2.40;;
2940;SDS011;1480;51.456;6.670;2023-06-10T06:40:18;6.20;;;2.10;;
2940;SDS011;1480;51.456;6.670;2023-06-10T06:42:44;3.67;;;2.50;;
2940;SDS011;1480;51.456;6.670;2023-06-10T06:45:31;3.90;;;2.77;;
2940;SDS011;1480;51.456;6.670;2023-06-10T06:47:59;3.50;;;2.63;;
2940;SDS011;1480;51.456;6.670;2023-06-10T06:50:25;3.27;;;2.50;;
2940;SDS011;1480;51.456;6.670;2023-06-10T06:52:52;5.17;;;2.40;;
2940;SDS011;1480;51.456;6.670;2023-06-10T06:55:19;4.60;;;2.40;;
2940;SDS011;1480;51.456;6.670;2023-06-10T06:57:45;3.90;;;2.83;;
2940;SDS011;1480;51.456;6.670;2023-06-10T07:00:12;2.40;;;2.10;;
2940;SDS011;1480;51.456;6.670;2023-06-10T07:02:41;2.80;;;2.23;;
2940;SDS011;1480;51.456;6.670;2023-06-10T07:05:07;3.27;;;2.50;;
2940;SDS011;1480;51.456;6.670;2023-06-10T07:07:34;4.40;;;3.00;;
2940;SDS011;1480;51.456;6.670;2023-06-10T07:10:01;3.63;;;2.30;;
2940;SDS011;1480;51.456;6.670;2023-06-10T07:12:28;3.17;;;2.57;;
2940;SDS011;1480;51.456;6.670;2023-06-10T07:14:56;9.40;;;2.77;;
2940;SDS011;1480;51.456;6.670;2023-06-10T07:17:23;3.20;;;2.67;;
2940;SDS011;1480;51.456;6.670;2023-06-10T07:19:51;3.73;;;2.53;;
2940;SDS011;1480;51.456;6.670;2023-06-10T07:22:17;4.03;;;2.67;;
2940;SDS011;1480;51.456;6.670;2023-06-10T07:24:44;4.43;;;2.87;;
2940;SDS011;1480;51.456;6.670;2023-06-10T07:27:11;2.63;;;2.07;;
2940;SDS011;1480;51.456;6.670;2023-06-10T07:29:38;4.60;;;2.87;;
2940;SDS011;1480;51.456;6.670;2023-06-10T07:32:05;3.77;;;1.87;;
2940;SDS011;1480;51.456;6.670;2023-06-10T07:34:32;3.90;;;2.03;;
2940;SDS011;1480;51.456;6.670;2023-06-10T07:37:00;4.40;;;2.40;;
2940;SDS011;1480;51.456;6.670;2023-06-10T07:39:26;5.10;;;2.10;;
2940;SDS011;1480;51.456;6.670;2023-06-10T07:41:53;4.30;;;2.50;;
2940;SDS011;1480;51.456;6.670;2023-06-10T07:44:23;3.77;;;2.07;;
2940;SDS011;1480;51.456;6.670;2023-06-10T07:46:50;3.23;;;2.30;;
2940;SDS011;1480;51.456;6.670;2023-06-10T07:49:16;3.70;;;2.37;;
2940;SDS011;1480;51.456;6.670;2023-06-10T07:51:43;4.57;;;2.43;;
2940;SDS011;1480;51.456;6.670;2023-06-10T07:54:11;5.80;;;2.50;;
2940;SDS011;1480;51.456;6.670;2023-06-10T07:56:38;5.00;;;2.20;;
2940;SDS011;1480;51.456;6.670;2023-06-10T07:59:05;3.77;;;2.37;;
2940;SDS011;1480;51.456;6.670;2023-06-10T08:01:32;3.27;;;2.03;;
2940;SDS011;1480;51.456;6.670;2023-06-10T08:03:58;3.43;;;2.20;;
2940;SDS011;1480;51.456;6.670;2023-06-10T08:06:28;3.90;;;2.33;;
2940;SDS011;1480;51.456;6.670;2023-06-10T08:08:55;4.23;;;2.50;;
2940;SDS011;1480;51.456;6.670;2023-06-10T08:11:23;4.50;;;2.40;;
2940;SDS011;1480;51.456;6.670;2023-06-10T08:13:50;2.80;;;2.07;;
2940;SDS011;1480;51.456;6.670;2023-06-10T08:16:16;4.73;;;2.70;;
2940;SDS011;1480;51.456;6.670;2023-06-10T08:18:43;4.50;;;1.90;;
2940;SDS011;1480;51.456;6.670;2023-06-10T08:21:10;5.10;;;2.33;;
2940;SDS011;1480;51.456;6.670;2023-06-10T08:23:36;5.60;;;2.30;;
2940;SDS011;1480;51.456;6.670;2023-06-10T08:26:03;6.63;;;2.77;;
2940;SDS011;1480;51.456;6.670;2023-06-10T08:28:31;4.83;;;2.90;;
2940;SDS011;1480;51.456;6.670;2023-06-10T08:30:58;3.50;;;2.50;;
2940;SDS011;1480;51.456;6.670;2023-06-10T08:33:24;4.13;;;2.57;;
2940;SDS011;1480;51.456;6.670;2023-06-10T08:35:51;7.13;;;2.70;;
2940;SDS011;1480;51.456;6.670;2023-06-10T08:38:17;4.83;;;2.40;;
2940;SDS011;1480;51.456;6.670;2023-06-10T08:40:44;3.50;;;2.23;;
2940;SDS011;1480;51.456;6.670;2023-06-10T08:43:19;5.80;;;2.70;;
2940;SDS011;1480;51.456;6.670;2023-06-10T08:45:49;4.97;;;2.90;;
2940;SDS011;1480;51.456;6.670;2023-06-10T08:48:16;3.53;;;2.43;;
2940;SDS011;1480;51.456;6.670;2023-06-10T08:50:43;5.17;;;2.50;;
2940;SDS011;1480;51.456;6.670;2023-06-10T08:53:10;4.43;;;2.43;;
2940;SDS011;1480;51.456;6.670;2023-06-10T08:55:41;4.70;;;3.17;;
2940;SDS011;1480;51.456;6.670;2023-06-10T08:58:08;2.80;;;2.23;;
2940;SDS011;1480;51.456;6.670;2023-06-10T09:00:35;3.90;;;2.37;;
2940;SDS011;1480;51.456;6.670;2023-06-10T09:03:03;3.47;;;2.50;;
2940;SDS011;1480;51.456;6.670;2023-06-10T09:05:34;4.50;;;2.93;;
2940;SDS011;1480;51.456;6.670;2023-06-10T09:08:01;4.10;;;2.43;;
2940;SDS011;1480;51.456;6.670;2023-06-10T09:10:28;5.80;;;2.93;;
2940;SDS011;1480;51.456;6.670;2023-06-10T09:12:55;4.40;;;2.30;;
2940;SDS011;1480;51.456;6.670;2023-06-10T09:15:22;4.07;;;2.30;;
2940;SDS011;1480;51.456;6.670;2023-06-10T09:17:49;4.33;;;2.20;;
2940;SDS011;1480;51.456;6.670;2023-06-10T09:20:17;5.70;;;3.03;;
2940;SDS011;1480;51.456;6.670;2023-06-10T09:22:45;5.03;;;2.80;;
2940;SDS011;1480;51.456;6.670;2023-06-10T09:25:12;3.20;;;2.37;;
2940;SDS011;1480;51.456;6.670;2023-06-10T09:27:45;2.70;;;2.17;;
2940;SDS011;1480;51.456;6.670;2023-06-10T09:30:24;7.10;;;3.63;;
2940;SDS011;1480;51.456;6.670;2023-06-10T09:32:52;3.80;;;2.57;;
2940;SDS011;1480;51.456;6.670;2023-06-10T09:35:22;4.00;;;2.80;;
2940;SDS011;1480;51.456;6.670;2023-06-10T09:37:50;3.67;;;2.53;;
2940;SDS011;1480;51.456;6.670;2023-06-10T09:40:18;3.20;;;2.23;;
2940;SDS011;1480;51.456;6.670;2023-06-10T09:42:44;3.50;;;2.50;;
2940;SDS011;1480;51.456;6.670;2023-06-10T09:45:14;4.53;;;2.93;;
2940;SDS011;1480;51.456;6.670;2023-06-10T09:47:40;6.83;;;2.77;;
2940;SDS011;1480;51.456;6.670;2023-06-10T09:50:07;3.83;;;3.00;;
2940;SDS011;1480;51.456;6.670;2023-06-10T09:52:37;7.23;;;3.13;;
2940;SDS011;1480;51.456;6.670;2023-06-10T09:55:07;6.00;;;3.23;;
2940;SDS011;1480;51.456;6.670;2023-06-10T09:57:34;6.03;;;3.50;;
2940;SDS011;1480;51.456;6.670;2023-06-10T10:00:04;7.30;;;2.43;;
2940;SDS011;1480;51.456;6.670;2023-06-10T10:02:43;4.30;;;3.20;;
2940;SDS011;1480;51.456;6.670;2023-06-10T10:05:12;4.20;;;2.90;;
2940;SDS011;1480;51.456;6.670;2023-06-10T10:07:40;4.27;;;2.63;;
2940;SDS011;1480;51.456;6.670;2023-06-10T10:10:07;10.33;;;2.43;;
2940;SDS011;1480;51.456;6.670;2023-06-10T10:12:35;4.93;;;2.67;;
2940;SDS011;1480;51.456;6.670;2023-06-10T10:15:02;2.97;;;2.30;;
2940;SDS011;1480;51.456;6.670;2023-06-10T10:17:29;4.87;;;2.27;;
2940;SDS011;1480;51.456;6.670;2023-06-10T10:19:57;3.90;;;2.67;;
2940;SDS011;1480;51.456;6.670;2023-06-10T10:22:29;3.57;;;2.60;;
2940;SDS011;1480;51.456;6.670;2023-06-10T10:24:59;5.27;;;2.90;;
2940;SDS011;1480;51.456;6.670;2023-06-10T10:27:30;3.53;;;2.77;;
2940;SDS011;1480;51.456;6.670;2023-06-10T10:29:59;14.10;;;2.93;;
2940;SDS011;1480;51.456;6.670;2023-06-10T10:32:32;3.27;;;2.20;;
2940;SDS011;1480;51.456;6.670;2023-06-10T10:35:03;3.00;;;2.17;;
2940;SDS011;1480;51.456;6.670;2023-06-10T10:37:34;8.40;;;3.70;;
2940;SDS011;1480;51.456;6.670;2023-06-10T10:40:03;3.53;;;3.00;;
2940;SDS011;1480;51.456;6.670;2023-06-10T10:42:30;3.77;;;2.50;;
2940;SDS011;1480;51.456;6.670;2023-06-10T10:44:58;3.87;;;2.90;;
2940;SDS011;1480;51.456;6.670;2023-06-10T10:47:25;3.50;;;2.83;;
2940;SDS011;1480;51.456;6.670;2023-06-10T10:49:54;6.40;;;2.90;;
2940;SDS011;1480;51.456;6.670;2023-06-10T10:52:24;3.83;;;2.83;;
2940;SDS011;1480;51.456;6.670;2023-06-10T10:54:52;3.03;;;2.43;;
2940;SDS011;1480;51.456;6.670;2023-06-10T10:57:21;5.40;;;3.40;;
2940;SDS011;1480;51.456;6.670;2023-06-10T10:59:53;7.83;;;3.13;;
2940;SDS011;1480;51.456;6.670;2023-06-10T11:02:35;5.57;;;3.23;;
2940;SDS011;1480;51.456;6.670;2023-06-10T11:05:04;3.33;;;2.67;;
2940;SDS011;1480;51.456;6.670;2023-06-10T11:07:32;5.20;;;3.23;;
2940;SDS011;1480;51.456;6.670;2023-06-10T11:10:00;3.80;;;3.13;;
2940;SDS011;1480;51.456;6.670;2023-06-10T11:12:41;3.47;;;2.73;;
2940;SDS011;1480;51.456;6.670;2023-06-10T11:15:08;3.93;;;3.07;;
2940;SDS011;1480;51.456;6.670;2023-06-10T11:17:35;5.57;;;2.80;;
2940;SDS011;1480;51.456;6.670;2023-06-10T11:20:02;4.90;;;3.40;;
2940;SDS011;1480;51.456;6.670;2023-06-10T11:22:30;3.93;;;2.87;;
2940;SDS011;1480;51.456;6.670;2023-06-10T11:24:56;3.27;;;2.73;;
2940;SDS011;1480;51.456;6.670;2023-06-10T11:27:24;4.30;;;2.80;;
2940;SDS011;1480;51.456;6.670;2023-06-10T11:30:00;5.03;;;2.70;;
2940;SDS011;1480;51.456;6.670;2023-06-10T11:32:44;4.37;;;3.60;;
2940;SDS011;1480;51.456;6.670;2023-06-10T11:35:11;4.57;;;2.90;;
2940;SDS011;1480;51.456;6.670;2023-06-10T11:37:38;4.47;;;2.93;;
2940;SDS011;1480;51.456;6.670;2023-06-10T11:40:05;5.10;;;3.30;;
2940;SDS011;1480;51.456;6.670;2023-06-10T11:42:37;4.67;;;3.20;;
2940;SDS011;1480;51.456;6.670;2023-06-10T11:45:07;4.20;;;2.63;;
2940;SDS011;1480;51.456;6.670;2023-06-10T11:47:34;3.70;;;2.90;;
2940;SDS011;1480;51.456;6.670;2023-06-10T11:50:01;4.30;;;3.00;;
2940;SDS011;1480;51.456;6.670;2023-06-10T11:52:28;4.93;;;3.20;;
2940;SDS011;1480;51.456;6.670;2023-06-10T11:54:57;5.57;;;3.50;;
2940;SDS011;1480;51.456;6.670;2023-06-10T11:57:23;3.37;;;2.97;;
2940;SDS011;1480;51.456;6.670;2023-06-10T11:59:50;4.00;;;3.17;;
2940;SDS011;1480;51.456;6.670;2023-06-10T12:02:18;3.80;;;2.57;;
2940;SDS011;1480;51.456;6.670;2023-06-10T12:04:45;4.27;;;3.23;;
2940;SDS011;1480;51.456;6.670;2023-06-10T12:07:16;4.00;;;3.30;;
2940;SDS011;1480;51.456;6.670;2023-06-10T12:09:44;4.87;;;3.33;;
2940;SDS011;1480;51.456;6.670;2023-06-10T12:12:10;5.80;;;3.00;;
2940;SDS011;1480;51.456;6.670;2023-06-10T12:14:50;4.80;;;3.20;;
2940;SDS011;1480;51.456;6.670;2023-06-10T12:17:21;5.53;;;3.67;;
2940;SDS011;1480;51.456;6.670;2023-06-10T12:19:49;4.63;;;2.80;;
2940;SDS011;1480;51.456;6.670;2023-06-10T12:22:16;3.73;;;3.20;;
2940;SDS011;1480;51.456;6.670;2023-06-10T12:24:44;5.90;;;3.00;;
2940;SDS011;1480;51.456;6.670;2023-06-10T12:27:11;4.07;;;3.30;;
2940;SDS011;1480;51.456;6.670;2023-06-10T12:29:38;4.00;;;2.80;;
2940;SDS011;1480;51.456;6.670;2023-06-10T12:32:05;5.97;;;2.90;;
2940;SDS011;1480;51.456;6.670;2023-06-10T12:34:35;3.10;;;2.77;;
2940;SDS011;1480;51.456;6.670;2023-06-10T12:37:03;4.07;;;3.00;;
2940;SDS011;1480;51.456;6.670;2023-06-10T12:39:31;3.83;;;2.53;;
2940;SDS011;1480;51.456;6.670;2023-06-10T12:41:59;4.40;;;3.17;;
2940;SDS011;1480;51.456;6.670;2023-06-10T12:44:32;3.70;;;2.93;;
2940;SDS011;1480;51.456;6.670;2023-06-10T12:46:59;3.70;;;2.83;;
2940;SDS011;1480;51.456;6.670;2023-06-10T12:49:26;3.43;;;3.00;;
2940;SDS011;1480;51.456;6.670;2023-06-10T12:51:54;4.33;;;3.47;;
2940;SDS011;1480;51.456;6.670;2023-06-10T12:54:21;3.90;;;3.40;;
2940;SDS011;1480;51.456;6.670;2023-06-10T12:56:48;5.50;;;2.90;;
2940;SDS011;1480;51.456;6.670;2023-06-10T12:59:15;5.67;;;3.33;;
2940;SDS011;1480;51.456;6.670;2023-06-10T13:01:41;3.93;;;2.80;;
2940;SDS011;1480;51.456;6.670;2023-06-10T13:04:08;3.70;;;2.90;;
2940;SDS011;1480;51.456;6.670;2023-06-10T13:06:35;5.20;;;3.20;;
2940;SDS011;1480;51.456;6.670;2023-06-10T13:09:06;4.00;;;3.03;;
2940;SDS011;1480;51.456;6.670;2023-06-10T13:11:33;3.70;;;3.40;;
2940;SDS011;1480;51.456;6.670;2023-06-10T13:14:00;4.50;;;3.40;;
2940;SDS011;1480;51.456;6.670;2023-06-10T13:16:27;4.93;;;3.37;;
2940;SDS011;1480;51.456;6.670;2023-06-10T13:18:54;3.77;;;2.47;;
2940;SDS011;1480;51.456;6.670;2023-06-10T13:21:21;4.40;;;3.13;;
2940;SDS011;1480;51.456;6.670;2023-06-10T13:23:48;3.50;;;2.60;;
2940;SDS011;1480;51.456;6.670;2023-06-10T13:26:16;5.17;;;3.67;;
2940;SDS011;1480;51.456;6.670;2023-06-10T13:28:43;4.97;;;3.60;;
2940;SDS011;1480;51.456;6.670;2023-06-10T13:31:10;3.40;;;3.07;;
2940;SDS011;1480;51.456;6.670;2023-06-10T13:33:37;3.93;;;2.70;;
2940;SDS011;1480;51.456;6.670;2023-06-10T13:36:03;4.13;;;3.47;;
2940;SDS011;1480;51.456;6.670;2023-06-10T13:38:30;3.87;;;2.80;;
2940;SDS011;1480;51.456;6.670;2023-06-10T13:40:57;4.33;;;3.63;;
2940;SDS011;1480;51.456;6.670;2023-06-10T13:43:25;4.50;;;3.20;;
2940;SDS011;1480;51.456;6.670;2023-06-10T13:45:52;3.40;;;3.10;;
2940;SDS011;1480;51.456;6.670;2023-06-10T13:48:18;3.70;;;3.30;;
2940;SDS011;1480;51.456;6.670;2023-06-10T13:50:45;3.57;;;2.83;;
2940;SDS011;1480;51.456;6.670;2023-06-10T13:53:12;3.80;;;3.07;;
2940;SDS011;1480;51.456;6.670;2023-06-10T13:55:38;4.17;;;2.87;;
2940;SDS011;1480;51.456;6.670;2023-06-10T13:58:05;3.97;;;3.40;;
2940;SDS011;1480;51.456;6.670;2023-06-10T14:00:33;4.20;;;2.93;;
2940;SDS011;1480;51.456;6.670;2023-06-10T14:03:00;4.70;;;2.90;;
2940;SDS011;1480;51.456;6.670;2023-06-10T14:05:28;5.50;;;3.10;;
2940;SDS011;1480;51.456;6.670;2023-06-10T14:07:54;4.97;;;3.70;;
2940;SDS011;1480;51.456;6.670;2023-06-10T14:10:21;4.20;;;3.17;;
2940;SDS011;1480;51.456;6.670;2023-06-10T14:12:48;3.47;;;3.17;;
2940;SDS011;1480;51.456;6.670;2023-06-10T14:15:15;3.80;;;2.97;;
2940;SDS011;1480;51.456;6.670;2023-06-10T14:17:43;3.37;;;2.93;;
2940;SDS011;1480;51.456;6.670;2023-06-10T14:20:10;5.13;;;3.73;;
2940;SDS011;1480;51.456;6.670;2023-06-10T14:22:37;3.90;;;2.87;;
2940;SDS011;1480;51.456;6.670;2023-06-10T14:25:04;5.07;;;3.20;;
2940;SDS011;1480;51.456;6.670;2023-06-10T14:27:32;4.83;;;3.40;;
2940;SDS011;1480;51.456;6.670;2023-06-10T14:29:58;4.43;;;3.10;;
2940;SDS011;1480;51.456;6.670;2023-06-10T14:32:25;5.07;;;4.57;;
2940;SDS011;1480;51.456;6.670;2023-06-10T14:34:53;4.40;;;3.40;;
2940;SDS011;1480;51.456;6.670;2023-06-10T14:37:20;3.93;;;3.00;;
2940;SDS011;1480;51.456;6.670;2023-06-10T14:39:47;4.10;;;3.10;;
2940;SDS011;1480;51.456;6.670;2023-06-10T14:42:13;5.23;;;3.70;;
2940;SDS011;1480;51.456;6.670;2023-06-10T14:44:40;3.73;;;3.13;;
2940;SDS011;1480;51.456;6.670;2023-06-10T14:47:07;3.90;;;2.90;;
2940;SDS011;1480;51.456;6.670;2023-06-10T14:49:33;4.50;;;3.07;;
2940;SDS011;1480;51.456;6.670;2023-06-10T14:52:01;3.77;;;3.00;;
2940;SDS011;1480;51.456;6.670;2023-06-10T14:54:28;5.13;;;4.03;;
2940;SDS011;1480;51.456;6.670;2023-06-10T14:56:55;5.10;;;3.27;;
2940;SDS011;1480;51.456;6.670;2023-06-10T14:59:22;5.70;;;3.90;;
2940;SDS011;1480;51.456;6.670;2023-06-10T15:01:48;4.00;;;2.70;;
2940;SDS011;1480;51.456;6.670;2023-06-10T15:04:15;3.93;;;2.90;;
2940;SDS011;1480;51.456;6.670;2023-06-10T15:06:42;4.20;;;2.77;;
2940;SDS011;1480;51.456;6.670;2023-06-10T15:09:10;5.53;;;3.00;;
2940;SDS011;1480;51.456;6.670;2023-06-10T15:11:36;4.50;;;3.10;;
2940;SDS011;1480;51.456;6.670;2023-06-10T15:14:03;3.87;;;3.47;;
2940;SDS011;1480;51.456;6.670;2023-06-10T15:16:30;3.90;;;2.97;;
2940;SDS011;1480;51.456;6.670;2023-06-10T15:18:57;3.93;;;2.73;;